createdAt,value
2022-12-24T00:01:34.005Z,1.52
2022-12-24T00:04:00.902Z,1.05
2022-12-24T00:06:27.395Z,1.20
2022-12-24T00:08:53.945Z,1.05
2022-12-24T00:11:20.962Z,1.20
2022-12-24T00:13:47.637Z,1.30
2022-12-24T00:16:14.655Z,0.98
2022-12-24T00:18:45.956Z,1.10
2022-12-24T00:21:13.641Z,1.08
2022-12-24T00:23:40.587Z,1.23
2022-12-24T00:26:07.152Z,1.40
2022-12-24T00:28:33.807Z,1.20
2022-12-24T00:31:00.396Z,1.10
2022-12-24T00:33:26.868Z,1.23
2022-12-24T00:35:53.692Z,1.33
2022-12-24T00:38:20.493Z,1.30
2022-12-24T00:40:46.950Z,1.20
2022-12-24T00:43:13.564Z,1.30
2022-12-24T00:45:39.958Z,1.20
2022-12-24T00:48:06.700Z,1.55
2022-12-24T00:50:33.357Z,1.02
2022-12-24T00:53:00.017Z,1.10
2022-12-24T00:55:26.465Z,1.20
2022-12-24T00:57:52.865Z,1.50
2022-12-24T01:00:19.737Z,1.10
2022-12-24T01:02:46.519Z,1.65
2022-12-24T01:05:13.320Z,0.90
2022-12-24T01:07:44.651Z,1.40
2022-12-24T01:10:13.604Z,1.77
2022-12-24T01:12:40.928Z,0.88
2022-12-24T01:15:08.670Z,1.20
2022-12-24T01:17:35.740Z,1.20
2022-12-24T01:20:03.587Z,1.00
2022-12-24T01:22:30.142Z,1.23
2022-12-24T01:24:56.617Z,1.27
2022-12-24T01:27:23.373Z,1.05
2022-12-24T01:29:49.803Z,1.25
2022-12-24T01:32:16.577Z,1.58
2022-12-24T01:34:43.111Z,1.23
2022-12-24T01:37:09.625Z,1.48
2022-12-24T01:39:36.113Z,1.35
2022-12-24T01:42:21.226Z,1.13
2022-12-24T01:44:51.286Z,1.30
2022-12-24T01:47:25.735Z,1.20
2022-12-24T01:49:57.262Z,1.20
2022-12-24T01:52:30.443Z,1.33
2022-12-24T01:55:03.736Z,1.48
2022-12-24T01:57:34.649Z,2.30
2022-12-24T02:00:05.277Z,1.30
2022-12-24T02:02:33.445Z,1.20
2022-12-24T02:05:10.807Z,1.20
2022-12-24T02:07:37.598Z,1.35
2022-12-24T02:10:05.373Z,1.15
2022-12-24T02:12:36.104Z,1.50
2022-12-24T02:15:03.529Z,1.67
2022-12-24T02:18:06.627Z,1.50
2022-12-24T02:20:58.365Z,1.58
2022-12-24T02:24:03.550Z,1.38
2022-12-24T02:26:54.004Z,1.50
2022-12-24T02:29:36.727Z,1.20
2022-12-24T02:32:13.413Z,1.10
2022-12-24T02:34:50.479Z,1.95
2022-12-24T02:37:20.232Z,1.30
2022-12-24T02:39:54.289Z,1.00
2022-12-24T02:42:26.578Z,1.30
2022-12-24T02:45:04.804Z,1.40
2022-12-24T02:47:34.189Z,1.10
2022-12-24T02:50:02.453Z,1.40
2022-12-24T02:52:34.724Z,1.10
2022-12-24T02:55:19.649Z,1.55
2022-12-24T02:58:07.442Z,1.10
2022-12-24T03:00:43.781Z,1.52
2022-12-24T03:03:36.826Z,1.30
2022-12-24T03:06:23.917Z,1.80
2022-12-24T03:09:28.134Z,1.45
2022-12-24T03:12:04.710Z,1.20
2022-12-24T03:14:34.760Z,1.20
2022-12-24T03:17:03.189Z,1.20
2022-12-24T03:19:31.474Z,1.17
2022-12-24T03:21:59.430Z,1.10
2022-12-24T03:26:52.933Z,1.30
2022-12-24T03:29:20.482Z,1.02
2022-12-24T03:31:52.907Z,1.30
2022-12-24T03:34:19.966Z,1.20
2022-12-24T03:36:47.997Z,1.60
2022-12-24T03:39:14.456Z,1.10
2022-12-24T03:41:40.878Z,1.35
2022-12-24T03:44:07.337Z,2.63
2022-12-24T03:46:33.917Z,2.33
2022-12-24T03:49:00.472Z,1.50
2022-12-24T03:51:27.503Z,1.70
2022-12-24T03:53:55.720Z,2.05
2022-12-24T03:56:22.760Z,1.90
2022-12-24T03:58:49.557Z,1.90
2022-12-24T04:01:17.197Z,2.17
2022-12-24T04:03:44.636Z,2.28
2022-12-24T04:06:14.726Z,1.77
2022-12-24T04:08:41.753Z,1.80
2022-12-24T04:11:10.642Z,1.40
2022-12-24T04:13:37.531Z,1.50
2022-12-24T04:16:08.434Z,1.38
2022-12-24T04:18:35.380Z,2.30
2022-12-24T04:21:02.014Z,1.60
2022-12-24T04:23:31.518Z,1.65
2022-12-24T04:26:02.239Z,1.58
2022-12-24T04:28:30.014Z,1.80
2022-12-24T04:31:01.280Z,1.95
2022-12-24T04:33:27.963Z,1.30
2022-12-24T04:35:54.788Z,1.50
2022-12-24T04:38:21.221Z,1.40
2022-12-24T04:40:48.004Z,1.90
2022-12-24T04:43:15.413Z,1.35
2022-12-24T04:45:41.824Z,1.92
2022-12-24T04:48:08.384Z,1.48
2022-12-24T04:50:34.985Z,1.20
2022-12-24T04:53:01.524Z,1.63
2022-12-24T04:55:27.967Z,1.75
2022-12-24T04:57:54.507Z,1.58
2022-12-24T05:00:21.068Z,1.88
2022-12-24T05:02:47.977Z,1.58
2022-12-24T05:05:14.753Z,1.35
2022-12-24T05:07:41.207Z,1.17
2022-12-24T05:10:08.514Z,0.95
2022-12-24T05:12:34.961Z,1.40
2022-12-24T05:15:01.583Z,1.23
2022-12-24T05:17:28.167Z,1.50
2022-12-24T05:19:54.667Z,1.77
2022-12-24T05:22:39.490Z,1.30
2022-12-24T05:25:24.760Z,1.20
2022-12-24T05:27:51.665Z,2.05
2022-12-24T05:30:18.284Z,1.30
2022-12-24T05:32:44.972Z,1.70
2022-12-24T05:35:11.508Z,1.52
2022-12-24T05:37:38.072Z,1.45
2022-12-24T05:40:04.986Z,1.38
2022-12-24T05:42:31.389Z,1.80
2022-12-24T05:44:57.830Z,1.40
2022-12-24T05:47:24.418Z,2.28
2022-12-24T05:49:51.016Z,1.70
2022-12-24T05:52:17.459Z,1.98
2022-12-24T05:54:43.950Z,1.42
2022-12-24T05:57:10.663Z,2.10
2022-12-24T05:59:37.274Z,1.98
2022-12-24T06:02:03.931Z,1.83
2022-12-24T06:04:30.672Z,1.80
2022-12-24T06:06:57.397Z,2.30
2022-12-24T06:09:23.999Z,1.60
2022-12-24T06:11:50.485Z,1.60
2022-12-24T06:14:17.043Z,2.22
2022-12-24T06:16:43.441Z,1.63
2022-12-24T06:19:09.953Z,2.25
2022-12-24T06:21:36.394Z,2.38
2022-12-24T06:24:03.215Z,1.52
2022-12-24T06:26:29.662Z,1.50
2022-12-24T06:28:56.085Z,1.60
2022-12-24T06:31:23.657Z,1.38
2022-12-24T06:33:51.542Z,1.70
2022-12-24T06:38:53.421Z,1.77
2022-12-24T06:41:21.085Z,1.80
2022-12-24T06:43:50.011Z,1.25
2022-12-24T06:46:17.519Z,1.30
2022-12-24T06:48:45.394Z,1.55
2022-12-24T06:51:13.822Z,1.90
2022-12-24T06:53:40.556Z,1.30
2022-12-24T06:56:12.196Z,1.77
2022-12-24T06:58:40.770Z,1.40
2022-12-24T07:01:13.525Z,1.63
2022-12-24T07:03:40.598Z,1.52
2022-12-24T07:06:08.177Z,2.20
2022-12-24T07:08:36.404Z,1.90
2022-12-24T07:11:03.676Z,1.80
2022-12-24T07:13:31.707Z,1.88
2022-12-24T07:18:25.781Z,1.80
2022-12-24T07:20:52.622Z,1.33
2022-12-24T07:23:19.149Z,1.98
2022-12-24T07:25:45.713Z,1.85
2022-12-24T07:28:12.702Z,1.48
2022-12-24T07:30:39.291Z,1.50
2022-12-24T07:33:05.881Z,1.58
2022-12-24T07:35:32.482Z,1.80
2022-12-24T07:37:58.885Z,1.90
2022-12-24T07:40:25.615Z,1.33
2022-12-24T07:42:52.204Z,1.92
2022-12-24T07:45:18.752Z,1.88
2022-12-24T07:47:45.308Z,1.55
2022-12-24T07:50:11.982Z,1.83
2022-12-24T07:52:38.511Z,1.85
2022-12-24T07:55:05.381Z,1.63
2022-12-24T07:57:31.922Z,1.83
2022-12-24T07:59:58.464Z,1.60
2022-12-24T08:02:25.234Z,1.88
2022-12-24T08:04:52.031Z,1.52
2022-12-24T08:07:18.576Z,2.13
2022-12-24T08:09:46.302Z,1.92
2022-12-24T08:12:12.815Z,1.48
2022-12-24T08:14:39.483Z,2.65
2022-12-24T08:17:05.974Z,1.67
2022-12-24T08:19:32.575Z,1.63
2022-12-24T08:21:59.186Z,1.75
2022-12-24T08:24:25.715Z,1.83
2022-12-24T08:26:52.189Z,1.33
2022-12-24T08:29:18.760Z,1.65
2022-12-24T08:31:45.360Z,2.20
2022-12-24T08:34:12.081Z,3.25
2022-12-24T08:36:38.676Z,4.30
2022-12-24T08:39:08.602Z,2.95
2022-12-24T08:41:35.622Z,4.30
2022-12-24T08:44:02.140Z,6.50
2022-12-24T08:46:28.717Z,5.20
2022-12-24T08:48:55.252Z,6.05
2022-12-24T08:51:21.820Z,5.93
2022-12-24T08:53:48.358Z,4.63
2022-12-24T08:56:14.939Z,3.80
2022-12-24T08:58:41.573Z,2.50
2022-12-24T09:01:17.258Z,2.65
2022-12-24T09:03:44.353Z,2.10
2022-12-24T09:06:11.890Z,2.42
2022-12-24T09:08:38.674Z,2.60
2022-12-24T09:11:11.923Z,2.70
2022-12-24T09:13:39.106Z,2.80
2022-12-24T09:16:06.544Z,2.47
2022-12-24T09:18:33.381Z,2.63
2022-12-24T09:21:11.374Z,1.83
2022-12-24T09:23:41.891Z,2.15
2022-12-24T09:26:10.278Z,1.80
2022-12-24T09:28:36.787Z,1.83
2022-12-24T09:31:05.143Z,1.50
2022-12-24T09:33:34.431Z,1.52
2022-12-24T09:36:01.819Z,2.25
2022-12-24T09:38:28.917Z,1.88
2022-12-24T09:40:56.268Z,1.58
2022-12-24T09:43:26.489Z,1.70
2022-12-24T09:46:11.552Z,2.00
2022-12-24T09:48:43.734Z,2.00
2022-12-24T09:51:16.183Z,2.10
2022-12-24T09:53:57.360Z,1.73
2022-12-24T09:56:27.493Z,1.92
2022-12-24T09:59:01.952Z,1.73
2022-12-24T10:01:34.053Z,1.83
2022-12-24T10:04:04.136Z,1.83
2022-12-24T10:06:44.668Z,2.15
2022-12-24T10:09:37.165Z,1.90
2022-12-24T10:12:45.921Z,1.73
2022-12-24T10:15:31.425Z,1.80
2022-12-24T10:18:18.198Z,3.80
2022-12-24T10:20:49.610Z,2.33
2022-12-24T10:23:22.070Z,2.05
2022-12-24T10:26:05.900Z,1.80
2022-12-24T10:28:44.007Z,1.67
2022-12-24T10:31:10.894Z,2.05
2022-12-24T10:33:49.970Z,1.42
2022-12-24T10:36:19.255Z,1.60
2022-12-24T10:38:46.690Z,1.55
2022-12-24T10:41:15.152Z,1.83
2022-12-24T10:43:45.084Z,1.30
2022-12-24T10:46:32.969Z,1.50
2022-12-24T10:51:58.722Z,1.90
2022-12-24T10:54:28.128Z,1.98
2022-12-24T10:57:02.413Z,2.08
2022-12-24T10:59:49.516Z,1.77
2022-12-24T11:02:29.881Z,1.73
2022-12-24T11:04:59.423Z,1.25
2022-12-24T11:07:26.947Z,1.80
2022-12-24T11:09:58.389Z,1.70
2022-12-24T11:12:28.298Z,2.20
2022-12-24T11:15:17.653Z,3.15
2022-12-24T11:17:59.207Z,2.10
2022-12-24T11:20:30.321Z,1.85
2022-12-24T11:22:57.880Z,3.03
2022-12-24T11:25:32.745Z,2.05
2022-12-24T11:28:30.162Z,1.75
2022-12-24T11:31:06.055Z,1.80
2022-12-24T11:33:45.902Z,1.73
2022-12-24T11:36:13.559Z,2.35
2022-12-24T11:38:40.698Z,1.77
2022-12-24T11:41:11.561Z,1.73
2022-12-24T11:43:45.044Z,1.73
2022-12-24T11:46:15.152Z,1.92
2022-12-24T11:48:43.883Z,1.90
2022-12-24T11:51:30.677Z,1.63
2022-12-24T11:54:06.102Z,1.80
2022-12-24T11:56:41.185Z,2.38
2022-12-24T11:59:18.102Z,2.53
2022-12-24T12:01:56.817Z,2.03
2022-12-24T12:04:30.472Z,1.65
2022-12-24T12:07:00.647Z,2.03
2022-12-24T12:09:32.501Z,1.63
2022-12-24T12:12:20.467Z,1.73
2022-12-24T12:14:57.680Z,1.92
2022-12-24T12:17:33.825Z,1.90
2022-12-24T12:20:11.247Z,1.50
2022-12-24T12:23:05.721Z,1.70
2022-12-24T12:25:37.316Z,1.60
2022-12-24T12:28:11.819Z,1.83
2022-12-24T12:30:41.083Z,2.53
2022-12-24T12:33:20.055Z,1.80
2022-12-24T12:35:48.905Z,1.50
2022-12-24T12:38:22.884Z,2.00
2022-12-24T12:41:04.637Z,1.95
2022-12-24T12:44:02.953Z,1.70
2022-12-24T12:46:58.820Z,1.98
2022-12-24T12:50:08.424Z,2.00
2022-12-24T12:53:12.360Z,2.33
2022-12-24T12:55:53.803Z,1.67
2022-12-24T12:58:26.957Z,2.00
2022-12-24T13:01:03.521Z,1.30
2022-12-24T13:04:07.324Z,1.83
2022-12-24T13:06:58.151Z,1.50
2022-12-24T13:09:43.382Z,2.42
2022-12-24T13:12:31.243Z,2.33
2022-12-24T13:15:19.581Z,1.90
2022-12-24T13:18:18.144Z,1.92
2022-12-24T13:20:50.390Z,1.58
2022-12-24T13:23:22.759Z,2.20
2022-12-24T13:25:55.032Z,2.10
2022-12-24T13:28:24.744Z,2.10
2022-12-24T13:31:01.319Z,1.70
2022-12-24T13:33:34.050Z,1.88
2022-12-24T13:36:07.957Z,2.05
2022-12-24T13:38:46.350Z,1.92
2022-12-24T13:41:41.179Z,1.40
2022-12-24T13:44:14.126Z,2.13
2022-12-24T13:46:58.253Z,1.90
2022-12-24T13:49:54.827Z,1.70
2022-12-24T13:52:24.968Z,1.98
2022-12-24T13:54:54.167Z,2.03
2022-12-24T13:57:26.291Z,1.45
2022-12-24T14:00:21.033Z,2.38
2022-12-24T14:03:02.879Z,2.45
2022-12-24T14:05:47.163Z,1.60
2022-12-24T14:08:22.795Z,1.80
2022-12-24T14:11:07.773Z,1.70
2022-12-24T14:13:40.400Z,1.30
2022-12-24T14:16:16.393Z,2.20
2022-12-24T14:18:57.922Z,2.22
2022-12-24T14:21:51.846Z,2.17
2022-12-24T14:24:25.712Z,1.77
2022-12-24T14:26:57.137Z,1.65
2022-12-24T14:29:33.906Z,1.83
2022-12-24T14:32:04.678Z,1.42
2022-12-24T14:34:31.785Z,1.75
2022-12-24T14:37:01.592Z,1.80
2022-12-24T14:39:34.225Z,2.03
2022-12-24T14:42:29.429Z,1.80
2022-12-24T14:45:34.019Z,1.80
2022-12-24T14:48:28.515Z,1.75
2022-12-24T14:51:18.222Z,1.90
2022-12-24T14:54:14.855Z,1.45
2022-12-24T14:56:41.435Z,1.42
2022-12-24T14:59:19.329Z,1.55
2022-12-24T15:01:47.017Z,1.48
2022-12-24T15:06:56.806Z,3.83
2022-12-24T15:09:31.855Z,3.30
2022-12-24T15:12:03.600Z,2.20
2022-12-24T15:14:39.073Z,2.17
2022-12-24T15:17:07.542Z,1.75
2022-12-24T15:19:38.060Z,2.05
2022-12-24T15:22:09.614Z,1.60
2022-12-24T15:24:44.563Z,2.15
2022-12-24T15:27:20.623Z,2.05
2022-12-24T15:29:50.299Z,1.95
2022-12-24T15:32:19.096Z,1.85
2022-12-24T15:34:48.578Z,1.52
2022-12-24T15:37:20.692Z,1.90
2022-12-24T15:39:56.710Z,2.00
2022-12-24T15:42:25.089Z,2.00
2022-12-24T15:45:27.651Z,2.03
2022-12-24T15:48:10.855Z,2.55
2022-12-24T15:50:43.451Z,2.20
2022-12-24T15:53:22.355Z,2.05
2022-12-24T15:56:09.216Z,2.13
2022-12-24T15:58:38.912Z,3.00
2022-12-24T16:01:15.291Z,2.78
2022-12-24T16:04:02.641Z,3.42
2022-12-24T16:07:02.056Z,2.83
2022-12-24T16:09:43.668Z,2.45
2022-12-24T16:12:20.831Z,2.70
2022-12-24T16:14:51.612Z,5.20
2022-12-24T16:17:23.719Z,5.03
2022-12-24T16:19:53.771Z,7.00
2022-12-24T16:22:31.932Z,6.88
2022-12-24T16:25:22.905Z,7.35
2022-12-24T16:27:50.735Z,5.75
2022-12-24T16:30:18.185Z,4.38
2022-12-24T16:32:46.268Z,4.13
2022-12-24T16:35:33.601Z,3.85
2022-12-24T16:38:00.117Z,4.07
2022-12-24T16:40:27.983Z,3.20
2022-12-24T16:43:15.351Z,3.28
2022-12-24T16:45:42.937Z,3.20
2022-12-24T16:48:17.006Z,2.58
2022-12-24T16:50:43.541Z,2.95
2022-12-24T16:53:17.678Z,6.45
2022-12-24T16:55:46.064Z,6.22
2022-12-24T16:58:14.298Z,2.83
2022-12-24T17:00:41.899Z,2.70
2022-12-24T17:03:09.169Z,2.00
2022-12-24T17:05:40.564Z,2.72
2022-12-24T17:08:08.164Z,2.17
2022-12-24T17:10:34.958Z,2.45
2022-12-24T17:13:01.748Z,2.08
2022-12-24T17:15:28.315Z,2.58
2022-12-24T17:17:54.865Z,3.22
2022-12-24T17:20:24.312Z,3.08
2022-12-24T17:22:51.580Z,3.17
2022-12-24T17:25:18.365Z,2.50
2022-12-24T17:27:45.025Z,2.65
2022-12-24T17:30:12.216Z,2.20
2022-12-24T17:32:39.702Z,2.25
2022-12-24T17:35:07.652Z,2.28
2022-12-24T17:37:34.615Z,3.45
2022-12-24T17:40:01.446Z,3.03
2022-12-24T17:42:27.950Z,4.75
2022-12-24T17:44:54.468Z,3.55
2022-12-24T17:47:21.001Z,2.90
2022-12-24T17:49:47.508Z,2.88
2022-12-24T17:52:13.948Z,2.90
2022-12-24T17:54:40.406Z,2.60
2022-12-24T17:57:06.845Z,2.25
2022-12-24T17:59:33.336Z,2.20
2022-12-24T18:01:59.882Z,2.03
2022-12-24T18:04:26.795Z,2.08
2022-12-24T18:06:59.625Z,2.33
2022-12-24T18:09:28.825Z,2.10
2022-12-24T18:11:55.393Z,2.40
2022-12-24T18:14:21.818Z,1.85
2022-12-24T18:16:49.442Z,2.30
2022-12-24T18:19:16.167Z,2.42
2022-12-24T18:21:42.646Z,1.90
2022-12-24T18:24:10.841Z,2.17
2022-12-24T18:26:37.603Z,3.50
2022-12-24T18:29:04.743Z,4.97
2022-12-24T18:31:33.922Z,5.40
2022-12-24T18:34:02.137Z,3.08
2022-12-24T18:36:29.096Z,2.60
2022-12-24T18:38:55.893Z,2.60
2022-12-24T18:41:25.757Z,2.92
2022-12-24T18:43:53.487Z,2.90
2022-12-24T18:46:23.749Z,1.95
2022-12-24T18:48:51.474Z,2.40
2022-12-24T18:51:22.041Z,2.65
2022-12-24T18:53:49.330Z,2.42
2022-12-24T18:56:18.903Z,2.40
2022-12-24T18:58:45.567Z,1.98
2022-12-24T19:01:15.363Z,2.00
2022-12-24T19:03:42.555Z,2.50
2022-12-24T19:06:09.358Z,2.72
2022-12-24T19:11:23.223Z,2.30
2022-12-24T19:13:50.853Z,2.70
2022-12-24T19:16:18.175Z,2.10
2022-12-24T19:18:44.944Z,2.38
2022-12-24T19:21:13.570Z,3.47
2022-12-24T19:23:40.102Z,2.00
2022-12-24T19:26:06.570Z,2.38
2022-12-24T19:28:33.214Z,2.53
2022-12-24T19:31:04.511Z,1.88
2022-12-24T19:33:31.009Z,2.08
2022-12-24T19:35:57.567Z,2.08
2022-12-24T19:38:24.072Z,2.75
2022-12-24T19:40:50.581Z,2.53
2022-12-24T19:43:17.002Z,3.88
2022-12-24T19:45:43.623Z,3.50
2022-12-24T19:48:10.483Z,2.50
2022-12-24T19:50:36.896Z,2.70
2022-12-24T19:53:03.551Z,2.90
2022-12-24T19:55:30.037Z,2.67
2022-12-24T19:57:56.573Z,2.40
2022-12-24T20:00:23.174Z,2.47
2022-12-24T20:02:49.864Z,2.22
2022-12-24T20:05:16.551Z,2.60
2022-12-24T20:07:42.999Z,2.10
2022-12-24T20:10:09.805Z,1.90
2022-12-24T20:12:36.204Z,2.13
2022-12-24T20:15:02.753Z,2.15
2022-12-24T20:17:29.192Z,2.25
2022-12-24T20:19:55.878Z,1.80
2022-12-24T20:22:22.406Z,1.80
2022-12-24T20:24:48.869Z,2.42
2022-12-24T20:27:15.544Z,2.17
2022-12-24T20:29:42.054Z,2.30
2022-12-24T20:32:08.485Z,2.00
2022-12-24T20:34:35.128Z,2.42
2022-12-24T20:37:01.629Z,2.08
2022-12-24T20:39:28.289Z,3.58
2022-12-24T20:41:54.767Z,3.97
2022-12-24T20:44:21.260Z,3.50
2022-12-24T20:46:47.791Z,3.00
2022-12-24T20:49:14.701Z,2.78
2022-12-24T20:51:41.201Z,2.60
2022-12-24T20:54:07.635Z,2.35
2022-12-24T20:56:34.225Z,2.90
2022-12-24T20:59:01.683Z,3.00
2022-12-24T21:01:29.296Z,2.30
2022-12-24T21:03:57.260Z,3.25
2022-12-24T21:06:25.028Z,2.63
2022-12-24T21:08:53.533Z,2.88
2022-12-24T21:11:39.983Z,2.50
2022-12-24T21:14:07.045Z,2.90
2022-12-24T21:16:35.354Z,5.38
2022-12-24T21:19:02.296Z,4.85
2022-12-24T21:21:28.826Z,3.88
2022-12-24T21:23:55.379Z,3.15
2022-12-24T21:26:21.887Z,3.70
2022-12-24T21:28:49.094Z,3.75
2022-12-24T21:31:16.025Z,3.97
2022-12-24T21:33:42.899Z,4.10
2022-12-24T21:36:12.223Z,9.27
2022-12-24T21:38:38.925Z,5.28
2022-12-24T21:41:08.998Z,3.72
2022-12-24T21:43:36.328Z,3.45
2022-12-24T21:46:11.191Z,3.17
2022-12-24T21:48:57.655Z,2.63
2022-12-24T21:51:26.679Z,2.80
2022-12-24T21:54:12.644Z,2.95
2022-12-24T21:56:58.333Z,3.38
2022-12-24T21:59:26.970Z,4.40
2022-12-24T22:01:54.617Z,3.35
2022-12-24T22:04:21.330Z,3.10
2022-12-24T22:07:06.561Z,3.75
2022-12-24T22:09:51.585Z,4.65
2022-12-24T22:12:18.339Z,3.60
2022-12-24T22:14:44.866Z,3.28
2022-12-24T22:17:11.672Z,4.75
2022-12-24T22:19:38.183Z,4.47
2022-12-24T22:22:04.726Z,4.68
2022-12-24T22:24:31.253Z,4.35
2022-12-24T22:26:58.181Z,3.67
2022-12-24T22:29:25.127Z,3.40
2022-12-24T22:31:51.737Z,3.17
2022-12-24T22:34:18.224Z,3.10
2022-12-24T22:36:44.759Z,3.47
2022-12-24T22:39:11.319Z,3.17
2022-12-24T22:41:37.931Z,2.88
2022-12-24T22:44:04.663Z,3.10
2022-12-24T22:46:31.207Z,3.22
2022-12-24T22:48:57.881Z,3.20
2022-12-24T22:51:24.454Z,3.30
2022-12-24T22:53:51.258Z,3.88
2022-12-24T22:56:23.038Z,3.05
2022-12-24T22:58:54.281Z,3.10
2022-12-24T23:01:38.604Z,4.50
2022-12-24T23:04:07.060Z,4.57
2022-12-24T23:06:35.294Z,4.60
2022-12-24T23:09:02.482Z,5.88
2022-12-24T23:11:28.973Z,5.20
2022-12-24T23:14:14.097Z,6.25
2022-12-24T23:16:40.533Z,5.75
2022-12-24T23:19:07.162Z,5.63
2022-12-24T23:21:34.340Z,5.88
2022-12-24T23:24:01.612Z,5.68
2022-12-24T23:26:28.832Z,5.95
2022-12-24T23:28:56.143Z,4.88
2022-12-24T23:31:24.159Z,5.05
2022-12-24T23:36:18.018Z,6.00
2022-12-24T23:38:44.597Z,5.75
2022-12-24T23:41:11.483Z,5.20
2022-12-24T23:43:38.207Z,4.97
2022-12-24T23:46:05.370Z,5.03
2022-12-24T23:48:32.037Z,7.18
2022-12-24T23:51:06.671Z,6.35
2022-12-24T23:53:33.275Z,5.55
2022-12-24T23:56:02.176Z,4.93
2022-12-24T23:58:28.661Z,5.00
